sensor_id;sensor_type;location;lat;lon;timestamp;P1;durP1;ratioP1;P2;durP2;ratioP2
75499;SDS011;64076;51.466;7.260;2023-04-06T00:00:36;8.60;;;6.65;;
75499;SDS011;64076;51.466;7.260;2023-04-06T00:03:02;8.10;;;6.53;;
75499;SDS011;64076;51.466;7.260;2023-04-06T00:05:28;8.70;;;6.50;;
75499;SDS011;64076;51.466;7.260;2023-04-06T00:07:56;11.80;;;7.18;;
75499;SDS011;64076;51.466;7.260;2023-04-06T00:10:22;8.38;;;7.05;;
75499;SDS011;64076;51.466;7.260;2023-04-06T00:12:48;8.25;;;6.50;;
75499;SDS011;64076;51.466;7.260;2023-04-06T00:15:14;8.70;;;6.97;;
75499;SDS011;64076;51.466;7.260;2023-04-06T00:17:40;7.63;;;6.70;;
75499;SDS011;64076;51.466;7.260;2023-04-06T00:20:06;8.82;;;6.90;;
75499;SDS011;64076;51.466;7.260;2023-04-06T00:22:33;9.07;;;6.57;;
75499;SDS011;64076;51.466;7.260;2023-04-06T00:24:59;9.00;;;7.53;;
75499;SDS011;64076;51.466;7.260;2023-04-06T00:27:25;8.93;;;6.90;;
75499;SDS011;64076;51.466;7.260;2023-04-06T00:29:50;9.57;;;7.13;;
75499;SDS011;64076;51.466;7.260;2023-04-06T00:32:16;10.85;;;6.15;;
75499;SDS011;64076;51.466;7.260;2023-04-06T00:34:42;8.88;;;7.35;;
75499;SDS011;64076;51.466;7.260;2023-04-06T00:37:08;7.80;;;6.53;;
75499;SDS011;64076;51.466;7.260;2023-04-06T00:39:35;8.27;;;6.43;;
75499;SDS011;64076;51.466;7.260;2023-04-06T00:42:01;8.80;;;6.82;;
75499;SDS011;64076;51.466;7.260;2023-04-06T00:44:33;8.38;;;6.75;;
75499;SDS011;64076;51.466;7.260;2023-04-06T00:46:59;8.52;;;6.70;;
75499;SDS011;64076;51.466;7.260;2023-04-06T00:49:25;8.07;;;7.00;;
75499;SDS011;64076;51.466;7.260;2023-04-06T00:51:52;8.00;;;6.60;;
75499;SDS011;64076;51.466;7.260;2023-04-06T00:54:18;7.03;;;6.32;;
75499;SDS011;64076;51.466;7.260;2023-04-06T00:56:44;7.95;;;6.43;;
75499;SDS011;64076;51.466;7.260;2023-04-06T00:59:10;10.07;;;7.38;;
75499;SDS011;64076;51.466;7.260;2023-04-06T01:01:36;7.82;;;6.50;;
75499;SDS011;64076;51.466;7.260;2023-04-06T01:04:02;9.43;;;6.60;;
75499;SDS011;64076;51.466;7.260;2023-04-06T01:06:28;10.48;;;6.78;;
75499;SDS011;64076;51.466;7.260;2023-04-06T01:08:55;9.02;;;7.07;;
75499;SDS011;64076;51.466;7.260;2023-04-06T01:11:21;8.95;;;6.40;;
75499;SDS011;64076;51.466;7.260;2023-04-06T01:13:47;8.98;;;6.63;;
75499;SDS011;64076;51.466;7.260;2023-04-06T01:16:13;9.97;;;6.60;;
75499;SDS011;64076;51.466;7.260;2023-04-06T01:18:39;8.23;;;6.38;;
75499;SDS011;64076;51.466;7.260;2023-04-06T01:21:05;9.05;;;7.70;;
75499;SDS011;64076;51.466;7.260;2023-04-06T01:23:33;8.23;;;6.68;;
75499;SDS011;64076;51.466;7.260;2023-04-06T01:25:59;8.93;;;6.13;;
75499;SDS011;64076;51.466;7.260;2023-04-06T01:28:25;12.53;;;9.13;;
75499;SDS011;64076;51.466;7.260;2023-04-06T01:30:51;7.85;;;6.45;;
75499;SDS011;64076;51.466;7.260;2023-04-06T01:33:17;8.18;;;6.35;;
75499;SDS011;64076;51.466;7.260;2023-04-06T01:35:43;8.65;;;7.10;;
75499;SDS011;64076;51.466;7.260;2023-04-06T01:38:09;8.38;;;6.43;;
75499;SDS011;64076;51.466;7.260;2023-04-06T01:40:35;9.00;;;7.10;;
75499;SDS011;64076;51.466;7.260;2023-04-06T01:43:01;9.18;;;7.07;;
75499;SDS011;64076;51.466;7.260;2023-04-06T01:45:27;8.90;;;6.93;;
75499;SDS011;64076;51.466;7.260;2023-04-06T01:47:53;7.20;;;6.30;;
75499;SDS011;64076;51.466;7.260;2023-04-06T01:50:19;9.13;;;7.07;;
75499;SDS011;64076;51.466;7.260;2023-04-06T01:52:45;10.10;;;7.00;;
75499;SDS011;64076;51.466;7.260;2023-04-06T01:55:11;8.55;;;7.07;;
75499;SDS011;64076;51.466;7.260;2023-04-06T01:57:37;9.80;;;7.22;;
75499;SDS011;64076;51.466;7.260;2023-04-06T02:00:04;9.60;;;7.57;;
75499;SDS011;64076;51.466;7.260;2023-04-06T02:02:30;9.17;;;6.77;;
75499;SDS011;64076;51.466;7.260;2023-04-06T02:04:56;9.77;;;7.10;;
75499;SDS011;64076;51.466;7.260;2023-04-06T02:07:22;9.02;;;7.30;;
75499;SDS011;64076;51.466;7.260;2023-04-06T02:09:48;9.63;;;7.07;;
75499;SDS011;64076;51.466;7.260;2023-04-06T02:12:14;8.73;;;7.18;;
75499;SDS011;64076;51.466;7.260;2023-04-06T02:14:40;8.53;;;7.37;;
75499;SDS011;64076;51.466;7.260;2023-04-06T02:17:06;7.97;;;7.00;;
75499;SDS011;64076;51.466;7.260;2023-04-06T02:19:32;9.30;;;7.03;;
75499;SDS011;64076;51.466;7.260;2023-04-06T02:21:58;9.80;;;7.38;;
75499;SDS011;64076;51.466;7.260;2023-04-06T02:24:24;10.53;;;7.30;;
75499;SDS011;64076;51.466;7.260;2023-04-06T02:26:50;8.33;;;6.97;;
75499;SDS011;64076;51.466;7.260;2023-04-06T02:29:16;10.00;;;7.47;;
75499;SDS011;64076;51.466;7.260;2023-04-06T02:31:42;9.65;;;7.35;;
75499;SDS011;64076;51.466;7.260;2023-04-06T02:34:08;10.43;;;7.20;;
75499;SDS011;64076;51.466;7.260;2023-04-06T02:36:36;9.18;;;6.88;;
75499;SDS011;64076;51.466;7.260;2023-04-06T02:39:02;9.73;;;7.33;;
75499;SDS011;64076;51.466;7.260;2023-04-06T02:41:28;10.63;;;7.53;;
75499;SDS011;64076;51.466;7.260;2023-04-06T02:43:54;10.00;;;7.10;;
75499;SDS011;64076;51.466;7.260;2023-04-06T02:46:20;8.40;;;7.00;;
75499;SDS011;64076;51.466;7.260;2023-04-06T02:48:46;8.13;;;6.77;;
75499;SDS011;64076;51.466;7.260;2023-04-06T02:51:12;8.60;;;7.00;;
75499;SDS011;64076;51.466;7.260;2023-04-06T02:53:38;8.95;;;7.20;;
75499;SDS011;64076;51.466;7.260;2023-04-06T02:56:04;8.05;;;6.57;;
75499;SDS011;64076;51.466;7.260;2023-04-06T02:58:30;10.03;;;7.47;;
75499;SDS011;64076;51.466;7.260;2023-04-06T03:00:57;9.70;;;7.47;;
75499;SDS011;64076;51.466;7.260;2023-04-06T03:03:23;9.60;;;7.60;;
75499;SDS011;64076;51.466;7.260;2023-04-06T03:05:49;9.63;;;7.32;;
75499;SDS011;64076;51.466;7.260;2023-04-06T03:08:15;9.20;;;7.10;;
75499;SDS011;64076;51.466;7.260;2023-04-06T03:10:41;8.77;;;7.10;;
75499;SDS011;64076;51.466;7.260;2023-04-06T03:13:07;9.48;;;7.60;;
75499;SDS011;64076;51.466;7.260;2023-04-06T03:15:33;7.88;;;6.88;;
75499;SDS011;64076;51.466;7.260;2023-04-06T03:17:59;9.95;;;7.38;;
75499;SDS011;64076;51.466;7.260;2023-04-06T03:20:25;8.83;;;7.17;;
75499;SDS011;64076;51.466;7.260;2023-04-06T03:22:51;9.23;;;7.72;;
75499;SDS011;64076;51.466;7.260;2023-04-06T03:25:17;9.35;;;7.22;;
75499;SDS011;64076;51.466;7.260;2023-04-06T03:27:43;9.73;;;7.05;;
75499;SDS011;64076;51.466;7.260;2023-04-06T03:30:09;8.20;;;7.23;;
75499;SDS011;64076;51.466;7.260;2023-04-06T03:32:35;9.27;;;7.60;;
75499;SDS011;64076;51.466;7.260;2023-04-06T03:35:01;9.23;;;6.95;;
75499;SDS011;64076;51.466;7.260;2023-04-06T03:37:27;9.20;;;7.25;;
75499;SDS011;64076;51.466;7.260;2023-04-06T03:39:53;9.35;;;7.45;;
75499;SDS011;64076;51.466;7.260;2023-04-06T03:42:19;10.67;;;7.90;;
75499;SDS011;64076;51.466;7.260;2023-04-06T03:44:45;8.88;;;6.60;;
75499;SDS011;64076;51.466;7.260;2023-04-06T03:47:11;9.70;;;7.53;;
75499;SDS011;64076;51.466;7.260;2023-04-06T03:49:37;9.35;;;6.80;;
75499;SDS011;64076;51.466;7.260;2023-04-06T03:52:03;8.67;;;7.37;;
75499;SDS011;64076;51.466;7.260;2023-04-06T03:54:29;9.57;;;7.07;;
75499;SDS011;64076;51.466;7.260;2023-04-06T03:56:55;10.05;;;7.18;;
75499;SDS011;64076;51.466;7.260;2023-04-06T03:59:21;8.25;;;6.90;;
75499;SDS011;64076;51.466;7.260;2023-04-06T04:01:47;8.40;;;6.90;;
75499;SDS011;64076;51.466;7.260;2023-04-06T04:04:13;7.88;;;6.93;;
75499;SDS011;64076;51.466;7.260;2023-04-06T04:06:39;9.55;;;7.60;;
75499;SDS011;64076;51.466;7.260;2023-04-06T04:09:08;9.55;;;7.30;;
75499;SDS011;64076;51.466;7.260;2023-04-06T04:11:34;9.07;;;7.22;;
75499;SDS011;64076;51.466;7.260;2023-04-06T04:14:00;8.77;;;7.40;;
75499;SDS011;64076;51.466;7.260;2023-04-06T04:16:26;9.38;;;6.88;;
75499;SDS011;64076;51.466;7.260;2023-04-06T04:18:52;9.43;;;6.80;;
75499;SDS011;64076;51.466;7.260;2023-04-06T04:21:18;8.55;;;6.80;;
75499;SDS011;64076;51.466;7.260;2023-04-06T04:23:44;8.53;;;7.30;;
75499;SDS011;64076;51.466;7.260;2023-04-06T04:26:10;7.93;;;6.93;;
75499;SDS011;64076;51.466;7.260;2023-04-06T04:28:36;9.60;;;7.18;;
75499;SDS011;64076;51.466;7.260;2023-04-06T04:31:02;8.60;;;6.65;;
75499;SDS011;64076;51.466;7.260;2023-04-06T04:33:28;8.23;;;6.70;;
75499;SDS011;64076;51.466;7.260;2023-04-06T04:35:54;7.85;;;6.47;;
75499;SDS011;64076;51.466;7.260;2023-04-06T04:38:20;8.95;;;7.00;;
75499;SDS011;64076;51.466;7.260;2023-04-06T04:40:46;8.00;;;6.72;;
75499;SDS011;64076;51.466;7.260;2023-04-06T04:43:12;8.38;;;7.03;;
75499;SDS011;64076;51.466;7.260;2023-04-06T04:45:38;8.30;;;6.57;;
75499;SDS011;64076;51.466;7.260;2023-04-06T04:48:04;8.63;;;6.68;;
75499;SDS011;64076;51.466;7.260;2023-04-06T04:50:30;8.50;;;7.13;;
75499;SDS011;64076;51.466;7.260;2023-04-06T04:52:56;9.48;;;6.97;;
75499;SDS011;64076;51.466;7.260;2023-04-06T04:55:22;8.27;;;6.57;;
75499;SDS011;64076;51.466;7.260;2023-04-06T04:57:48;8.00;;;6.67;;
75499;SDS011;64076;51.466;7.260;2023-04-06T05:00:14;8.20;;;7.18;;
75499;SDS011;64076;51.466;7.260;2023-04-06T05:02:40;9.05;;;7.45;;
75499;SDS011;64076;51.466;7.260;2023-04-06T05:05:06;9.90;;;7.13;;
75499;SDS011;64076;51.466;7.260;2023-04-06T05:07:32;10.13;;;7.28;;
75499;SDS011;64076;51.466;7.260;2023-04-06T05:09:58;9.07;;;7.30;;
75499;SDS011;64076;51.466;7.260;2023-04-06T05:12:24;9.43;;;7.35;;
75499;SDS011;64076;51.466;7.260;2023-04-06T05:14:52;9.48;;;6.80;;
75499;SDS011;64076;51.466;7.260;2023-04-06T05:17:18;7.75;;;6.70;;
75499;SDS011;64076;51.466;7.260;2023-04-06T05:19:45;8.48;;;6.50;;
75499;SDS011;64076;51.466;7.260;2023-04-06T05:22:11;7.43;;;6.13;;
75499;SDS011;64076;51.466;7.260;2023-04-06T05:24:39;7.63;;;6.10;;
75499;SDS011;64076;51.466;7.260;2023-04-06T05:27:05;6.82;;;5.68;;
75499;SDS011;64076;51.466;7.260;2023-04-06T05:29:30;5.93;;;5.20;;
75499;SDS011;64076;51.466;7.260;2023-04-06T05:31:56;5.80;;;5.20;;
75499;SDS011;64076;51.466;7.260;2023-04-06T05:34:22;5.10;;;4.60;;
75499;SDS011;64076;51.466;7.260;2023-04-06T05:36:47;5.65;;;4.50;;
75499;SDS011;64076;51.466;7.260;2023-04-06T05:39:13;5.17;;;4.20;;
75499;SDS011;64076;51.466;7.260;2023-04-06T05:41:38;5.85;;;4.28;;
75499;SDS011;64076;51.466;7.260;2023-04-06T05:44:04;5.07;;;4.00;;
75499;SDS011;64076;51.466;7.260;2023-04-06T05:46:30;4.60;;;3.80;;
75499;SDS011;64076;51.466;7.260;2023-04-06T05:48:55;4.40;;;3.78;;
75499;SDS011;64076;51.466;7.260;2023-04-06T05:51:21;4.73;;;3.77;;
75499;SDS011;64076;51.466;7.260;2023-04-06T05:53:47;5.78;;;3.90;;
75499;SDS011;64076;51.466;7.260;2023-04-06T05:56:12;5.10;;;3.50;;
75499;SDS011;64076;51.466;7.260;2023-04-06T05:58:38;4.63;;;3.67;;
75499;SDS011;64076;51.466;7.260;2023-04-06T06:01:03;4.63;;;3.30;;
75499;SDS011;64076;51.466;7.260;2023-04-06T06:03:29;4.63;;;3.75;;
75499;SDS011;64076;51.466;7.260;2023-04-06T06:06:02;4.67;;;3.80;;
75499;SDS011;64076;51.466;7.260;2023-04-06T06:08:28;3.73;;;3.17;;
75499;SDS011;64076;51.466;7.260;2023-04-06T06:10:54;6.78;;;4.63;;
75499;SDS011;64076;51.466;7.260;2023-04-06T06:13:21;5.75;;;4.43;;
75499;SDS011;64076;51.466;7.260;2023-04-06T06:15:47;4.10;;;3.60;;
75499;SDS011;64076;51.466;7.260;2023-04-06T06:18:13;3.90;;;3.50;;
75499;SDS011;64076;51.466;7.260;2023-04-06T06:20:38;5.43;;;3.70;;
75499;SDS011;64076;51.466;7.260;2023-04-06T06:23:04;4.70;;;3.77;;
75499;SDS011;64076;51.466;7.260;2023-04-06T06:25:30;4.55;;;3.80;;
75499;SDS011;64076;51.466;7.260;2023-04-06T06:27:56;4.97;;;3.67;;
75499;SDS011;64076;51.466;7.260;2023-04-06T06:30:21;4.60;;;3.65;;
75499;SDS011;64076;51.466;7.260;2023-04-06T06:32:47;4.35;;;3.10;;
75499;SDS011;64076;51.466;7.260;2023-04-06T06:35:13;4.87;;;4.00;;
75499;SDS011;64076;51.466;7.260;2023-04-06T06:37:39;6.25;;;4.30;;
75499;SDS011;64076;51.466;7.260;2023-04-06T06:40:05;4.70;;;4.17;;
75499;SDS011;64076;51.466;7.260;2023-04-06T06:42:31;5.00;;;4.50;;
75499;SDS011;64076;51.466;7.260;2023-04-06T06:44:56;5.43;;;4.55;;
75499;SDS011;64076;51.466;7.260;2023-04-06T06:47:22;5.80;;;5.20;;
75499;SDS011;64076;51.466;7.260;2023-04-06T06:49:48;5.28;;;4.43;;
75499;SDS011;64076;51.466;7.260;2023-04-06T06:52:13;5.33;;;4.67;;
75499;SDS011;64076;51.466;7.260;2023-04-06T06:54:39;5.07;;;4.50;;
75499;SDS011;64076;51.466;7.260;2023-04-06T06:57:05;5.80;;;4.83;;
75499;SDS011;64076;51.466;7.260;2023-04-06T06:59:30;5.20;;;4.65;;
75499;SDS011;64076;51.466;7.260;2023-04-06T07:01:56;6.27;;;5.20;;
75499;SDS011;64076;51.466;7.260;2023-04-06T07:04:21;5.90;;;4.93;;
75499;SDS011;64076;51.466;7.260;2023-04-06T07:06:47;5.93;;;5.32;;
75499;SDS011;64076;51.466;7.260;2023-04-06T07:09:12;5.77;;;4.47;;
75499;SDS011;64076;51.466;7.260;2023-04-06T07:11:38;5.95;;;4.80;;
75499;SDS011;64076;51.466;7.260;2023-04-06T07:14:04;6.13;;;4.87;;
75499;SDS011;64076;51.466;7.260;2023-04-06T07:16:29;6.23;;;4.63;;
75499;SDS011;64076;51.466;7.260;2023-04-06T07:18:55;5.00;;;4.28;;
75499;SDS011;64076;51.466;7.260;2023-04-06T07:21:21;4.88;;;4.38;;
75499;SDS011;64076;51.466;7.260;2023-04-06T07:23:47;5.57;;;4.97;;
75499;SDS011;64076;51.466;7.260;2023-04-06T07:26:13;6.18;;;4.55;;
75499;SDS011;64076;51.466;7.260;2023-04-06T07:28:38;4.97;;;4.47;;
75499;SDS011;64076;51.466;7.260;2023-04-06T07:31:04;4.97;;;4.10;;
75499;SDS011;64076;51.466;7.260;2023-04-06T07:33:30;4.75;;;4.00;;
75499;SDS011;64076;51.466;7.260;2023-04-06T07:35:56;4.90;;;4.40;;
75499;SDS011;64076;51.466;7.260;2023-04-06T07:38:23;4.57;;;4.05;;
75499;SDS011;64076;51.466;7.260;2023-04-06T07:40:48;5.00;;;4.50;;
75499;SDS011;64076;51.466;7.260;2023-04-06T07:43:14;5.70;;;4.43;;
75499;SDS011;64076;51.466;7.260;2023-04-06T07:45:41;6.55;;;4.32;;
75499;SDS011;64076;51.466;7.260;2023-04-06T07:48:06;5.53;;;4.00;;
75499;SDS011;64076;51.466;7.260;2023-04-06T07:50:32;5.70;;;4.63;;
75499;SDS011;64076;51.466;7.260;2023-04-06T07:52:58;5.17;;;3.93;;
75499;SDS011;64076;51.466;7.260;2023-04-06T07:55:23;5.72;;;4.35;;
75499;SDS011;64076;51.466;7.260;2023-04-06T07:57:49;4.67;;;3.67;;
75499;SDS011;64076;51.466;7.260;2023-04-06T08:00:15;5.20;;;3.83;;
75499;SDS011;64076;51.466;7.260;2023-04-06T08:02:41;5.03;;;4.00;;
75499;SDS011;64076;51.466;7.260;2023-04-06T08:05:07;5.20;;;4.22;;
75499;SDS011;64076;51.466;7.260;2023-04-06T08:07:32;5.40;;;3.80;;
75499;SDS011;64076;51.466;7.260;2023-04-06T08:09:58;6.00;;;4.20;;
75499;SDS011;64076;51.466;7.260;2023-04-06T08:12:23;7.10;;;4.07;;
75499;SDS011;64076;51.466;7.260;2023-04-06T08:14:49;5.07;;;3.50;;
75499;SDS011;64076;51.466;7.260;2023-04-06T08:17:15;6.90;;;4.17;;
75499;SDS011;64076;51.466;7.260;2023-04-06T08:19:42;6.20;;;4.20;;
75499;SDS011;64076;51.466;7.260;2023-04-06T08:22:09;5.77;;;4.23;;
75499;SDS011;64076;51.466;7.260;2023-04-06T08:24:35;5.45;;;3.83;;
75499;SDS011;64076;51.466;7.260;2023-04-06T08:27:00;5.68;;;4.30;;
75499;SDS011;64076;51.466;7.260;2023-04-06T08:29:26;6.70;;;4.77;;
75499;SDS011;64076;51.466;7.260;2023-04-06T08:31:52;5.22;;;3.95;;
75499;SDS011;64076;51.466;7.260;2023-04-06T08:34:17;6.90;;;4.47;;
75499;SDS011;64076;51.466;7.260;2023-04-06T08:36:43;6.95;;;4.95;;
75499;SDS011;64076;51.466;7.260;2023-04-06T08:39:08;4.17;;;3.77;;
75499;SDS011;64076;51.466;7.260;2023-04-06T08:41:34;6.13;;;4.50;;
75499;SDS011;64076;51.466;7.260;2023-04-06T08:44:00;6.30;;;4.83;;
75499;SDS011;64076;51.466;7.260;2023-04-06T08:46:28;5.45;;;4.32;;
75499;SDS011;64076;51.466;7.260;2023-04-06T08:48:59;6.32;;;4.60;;
75499;SDS011;64076;51.466;7.260;2023-04-06T08:51:26;5.27;;;3.90;;
75499;SDS011;64076;51.466;7.260;2023-04-06T08:53:53;6.78;;;4.82;;
75499;SDS011;64076;51.466;7.260;2023-04-06T08:56:20;9.02;;;4.93;;
75499;SDS011;64076;51.466;7.260;2023-04-06T08:58:47;5.90;;;4.15;;
75499;SDS011;64076;51.466;7.260;2023-04-06T09:01:13;6.00;;;4.40;;
75499;SDS011;64076;51.466;7.260;2023-04-06T09:03:40;7.20;;;4.90;;
75499;SDS011;64076;51.466;7.260;2023-04-06T09:06:07;9.48;;;5.50;;
75499;SDS011;64076;51.466;7.260;2023-04-06T09:08:33;10.18;;;5.32;;
75499;SDS011;64076;51.466;7.260;2023-04-06T09:11:03;9.15;;;5.70;;
75499;SDS011;64076;51.466;7.260;2023-04-06T09:13:29;7.28;;;5.65;;
75499;SDS011;64076;51.466;7.260;2023-04-06T09:16:00;8.63;;;6.63;;
75499;SDS011;64076;51.466;7.260;2023-04-06T09:18:30;9.52;;;7.32;;
75499;SDS011;64076;51.466;7.260;2023-04-06T09:20:57;10.98;;;6.82;;
75499;SDS011;64076;51.466;7.260;2023-04-06T09:23:24;7.22;;;5.28;;
75499;SDS011;64076;51.466;7.260;2023-04-06T09:25:49;8.17;;;5.83;;
75499;SDS011;64076;51.466;7.260;2023-04-06T09:28:15;7.30;;;6.00;;
75499;SDS011;64076;51.466;7.260;2023-04-06T09:30:47;8.63;;;5.63;;
75499;SDS011;64076;51.466;7.260;2023-04-06T09:33:21;9.60;;;6.55;;
75499;SDS011;64076;51.466;7.260;2023-04-06T09:35:51;9.98;;;6.78;;
75499;SDS011;64076;51.466;7.260;2023-04-06T09:38:16;9.45;;;6.68;;
75499;SDS011;64076;51.466;7.260;2023-04-06T09:40:51;16.60;;;8.80;;
75499;SDS011;64076;51.466;7.260;2023-04-06T09:43:23;13.52;;;6.88;;
75499;SDS011;64076;51.466;7.260;2023-04-06T09:45:50;11.30;;;6.85;;
75499;SDS011;64076;51.466;7.260;2023-04-06T09:48:16;11.73;;;5.17;;
75499;SDS011;64076;51.466;7.260;2023-04-06T09:50:44;8.77;;;5.32;;
75499;SDS011;64076;51.466;7.260;2023-04-06T09:53:10;10.45;;;4.50;;
75499;SDS011;64076;51.466;7.260;2023-04-06T09:55:40;13.00;;;4.60;;
75499;SDS011;64076;51.466;7.260;2023-04-06T09:58:09;7.95;;;4.00;;
75499;SDS011;64076;51.466;7.260;2023-04-06T10:00:47;8.27;;;3.90;;
75499;SDS011;64076;51.466;7.260;2023-04-06T10:03:34;9.95;;;4.47;;
75499;SDS011;64076;51.466;7.260;2023-04-06T10:06:29;6.18;;;4.05;;
75499;SDS011;64076;51.466;7.260;2023-04-06T10:09:01;8.15;;;4.00;;
75499;SDS011;64076;51.466;7.260;2023-04-06T10:11:29;7.60;;;4.40;;
75499;SDS011;64076;51.466;7.260;2023-04-06T10:13:56;9.67;;;4.40;;
75499;SDS011;64076;51.466;7.260;2023-04-06T10:16:22;6.10;;;4.30;;
75499;SDS011;64076;51.466;7.260;2023-04-06T10:18:51;7.90;;;4.47;;
75499;SDS011;64076;51.466;7.260;2023-04-06T10:21:22;5.90;;;4.10;;
75499;SDS011;64076;51.466;7.260;2023-04-06T10:23:52;5.45;;;4.07;;
75499;SDS011;64076;51.466;7.260;2023-04-06T10:26:25;6.93;;;4.10;;
75499;SDS011;64076;51.466;7.260;2023-04-06T10:28:51;7.40;;;3.47;;
75499;SDS011;64076;51.466;7.260;2023-04-06T10:31:27;5.88;;;4.00;;
75499;SDS011;64076;51.466;7.260;2023-04-06T10:33:54;6.13;;;4.32;;
75499;SDS011;64076;51.466;7.260;2023-04-06T10:36:26;7.18;;;4.47;;
75499;SDS011;64076;51.466;7.260;2023-04-06T10:39:02;7.07;;;4.50;;
75499;SDS011;64076;51.466;7.260;2023-04-06T10:41:33;5.40;;;4.32;;
75499;SDS011;64076;51.466;7.260;2023-04-06T10:44:06;5.03;;;4.20;;
75499;SDS011;64076;51.466;7.260;2023-04-06T10:46:32;5.37;;;4.20;;
75499;SDS011;64076;51.466;7.260;2023-04-06T10:49:09;5.93;;;4.68;;
75499;SDS011;64076;51.466;7.260;2023-04-06T10:51:37;7.10;;;5.47;;
75499;SDS011;64076;51.466;7.260;2023-04-06T10:54:05;7.80;;;5.53;;
75499;SDS011;64076;51.466;7.260;2023-04-06T10:56:32;8.30;;;4.90;;
75499;SDS011;64076;51.466;7.260;2023-04-06T10:59:01;8.93;;;5.20;;
75499;SDS011;64076;51.466;7.260;2023-04-06T11:01:29;10.00;;;5.68;;
75499;SDS011;64076;51.466;7.260;2023-04-06T11:03:58;6.55;;;4.80;;
75499;SDS011;64076;51.466;7.260;2023-04-06T11:06:28;7.88;;;5.68;;
75499;SDS011;64076;51.466;7.260;2023-04-06T11:08:56;8.97;;;5.50;;
75499;SDS011;64076;51.466;7.260;2023-04-06T11:11:23;8.68;;;5.53;;
75499;SDS011;64076;51.466;7.260;2023-04-06T11:13:51;8.82;;;5.28;;
75499;SDS011;64076;51.466;7.260;2023-04-06T11:16:27;11.10;;;6.30;;
75499;SDS011;64076;51.466;7.260;2023-04-06T11:21:31;10.50;;;6.57;;
75499;SDS011;64076;51.466;7.260;2023-04-06T11:24:07;10.63;;;6.70;;
75499;SDS011;64076;51.466;7.260;2023-04-06T11:26:44;8.98;;;6.38;;
75499;SDS011;64076;51.466;7.260;2023-04-06T11:29:16;11.63;;;7.15;;
75499;SDS011;64076;51.466;7.260;2023-04-06T11:31:50;10.13;;;6.45;;
75499;SDS011;64076;51.466;7.260;2023-04-06T11:34:18;11.50;;;7.20;;
75499;SDS011;64076;51.466;7.260;2023-04-06T11:36:48;9.30;;;6.45;;
75499;SDS011;64076;51.466;7.260;2023-04-06T11:39:21;9.25;;;6.75;;
75499;SDS011;64076;51.466;7.260;2023-04-06T11:41:51;8.77;;;6.30;;
75499;SDS011;64076;51.466;7.260;2023-04-06T11:44:29;9.35;;;6.38;;
75499;SDS011;64076;51.466;7.260;2023-04-06T11:47:05;9.63;;;6.17;;
75499;SDS011;64076;51.466;7.260;2023-04-06T11:49:53;11.15;;;7.80;;
75499;SDS011;64076;51.466;7.260;2023-04-06T11:52:19;8.15;;;5.95;;
75499;SDS011;64076;51.466;7.260;2023-04-06T11:54:49;9.35;;;6.15;;
75499;SDS011;64076;51.466;7.260;2023-04-06T11:57:17;8.70;;;6.60;;
75499;SDS011;64076;51.466;7.260;2023-04-06T11:59:44;8.53;;;5.93;;
75499;SDS011;64076;51.466;7.260;2023-04-06T12:02:10;9.77;;;6.15;;
75499;SDS011;64076;51.466;7.260;2023-04-06T12:04:36;9.38;;;6.65;;
75499;SDS011;64076;51.466;7.260;2023-04-06T12:07:02;9.15;;;6.30;;
75499;SDS011;64076;51.466;7.260;2023-04-06T12:09:29;7.80;;;6.40;;
75499;SDS011;64076;51.466;7.260;2023-04-06T12:11:59;9.20;;;5.90;;
75499;SDS011;64076;51.466;7.260;2023-04-06T12:14:25;8.50;;;6.00;;
75499;SDS011;64076;51.466;7.260;2023-04-06T12:16:51;8.80;;;5.80;;
75499;SDS011;64076;51.466;7.260;2023-04-06T12:19:16;8.40;;;6.10;;
75499;SDS011;64076;51.466;7.260;2023-04-06T12:21:42;8.40;;;5.80;;
75499;SDS011;64076;51.466;7.260;2023-04-06T12:24:07;7.53;;;5.65;;
75499;SDS011;64076;51.466;7.260;2023-04-06T12:26:33;7.00;;;5.17;;
75499;SDS011;64076;51.466;7.260;2023-04-06T12:28:59;9.65;;;5.90;;
75499;SDS011;64076;51.466;7.260;2023-04-06T12:31:32;9.75;;;6.10;;
75499;SDS011;64076;51.466;7.260;2023-04-06T12:33:59;9.60;;;5.90;;
75499;SDS011;64076;51.466;7.260;2023-04-06T12:36:28;11.85;;;6.78;;
75499;SDS011;64076;51.466;7.260;2023-04-06T12:38:54;11.07;;;6.40;;
75499;SDS011;64076;51.466;7.260;2023-04-06T12:41:20;13.25;;;6.32;;
75499;SDS011;64076;51.466;7.260;2023-04-06T12:43:46;18.03;;;6.57;;
75499;SDS011;64076;51.466;7.260;2023-04-06T12:46:12;23.63;;;7.72;;
75499;SDS011;64076;51.466;7.260;2023-04-06T12:48:37;13.60;;;5.97;;
75499;SDS011;64076;51.466;7.260;2023-04-06T12:51:04;13.83;;;6.40;;
75499;SDS011;64076;51.466;7.260;2023-04-06T12:53:31;16.08;;;5.63;;
75499;SDS011;64076;51.466;7.260;2023-04-06T12:55:57;12.15;;;5.60;;
75499;SDS011;64076;51.466;7.260;2023-04-06T12:58:23;18.33;;;6.07;;
75499;SDS011;64076;51.466;7.260;2023-04-06T13:00:51;16.63;;;6.82;;
75499;SDS011;64076;51.466;7.260;2023-04-06T13:03:18;10.63;;;4.53;;
75499;SDS011;64076;51.466;7.260;2023-04-06T13:05:45;10.32;;;4.95;;
75499;SDS011;64076;51.466;7.260;2023-04-06T13:08:12;16.05;;;5.63;;
75499;SDS011;64076;51.466;7.260;2023-04-06T13:10:38;15.67;;;5.90;;
75499;SDS011;64076;51.466;7.260;2023-04-06T13:13:08;15.90;;;6.30;;
75499;SDS011;64076;51.466;7.260;2023-04-06T13:15:33;11.48;;;5.75;;
75499;SDS011;64076;51.466;7.260;2023-04-06T13:18:01;18.03;;;6.13;;
75499;SDS011;64076;51.466;7.260;2023-04-06T13:20:27;10.48;;;5.75;;
75499;SDS011;64076;51.466;7.260;2023-04-06T13:22:53;12.77;;;6.25;;
75499;SDS011;64076;51.466;7.260;2023-04-06T13:25:21;12.15;;;5.90;;
75499;SDS011;64076;51.466;7.260;2023-04-06T13:27:47;10.77;;;5.43;;
75499;SDS011;64076;51.466;7.260;2023-04-06T13:30:13;12.23;;;5.55;;
75499;SDS011;64076;51.466;7.260;2023-04-06T13:32:39;12.05;;;5.70;;
75499;SDS011;64076;51.466;7.260;2023-04-06T13:35:07;10.67;;;5.87;;
75499;SDS011;64076;51.466;7.260;2023-04-06T13:37:34;10.52;;;5.90;;
75499;SDS011;64076;51.466;7.260;2023-04-06T13:40:00;8.05;;;5.10;;
75499;SDS011;64076;51.466;7.260;2023-04-06T13:42:27;13.13;;;7.20;;
75499;SDS011;64076;51.466;7.260;2023-04-06T13:44:53;16.80;;;7.30;;
75499;SDS011;64076;51.466;7.260;2023-04-06T13:47:19;10.07;;;6.53;;
75499;SDS011;64076;51.466;7.260;2023-04-06T13:49:45;9.27;;;6.13;;
75499;SDS011;64076;51.466;7.260;2023-04-06T13:52:11;10.85;;;6.93;;
75499;SDS011;64076;51.466;7.260;2023-04-06T13:54:37;10.73;;;6.50;;
75499;SDS011;64076;51.466;7.260;2023-04-06T13:57:03;9.33;;;6.50;;
75499;SDS011;64076;51.466;7.260;2023-04-06T13:59:33;9.85;;;6.13;;
75499;SDS011;64076;51.466;7.260;2023-04-06T14:02:00;10.60;;;6.47;;
75499;SDS011;64076;51.466;7.260;2023-04-06T14:04:26;10.60;;;5.93;;
75499;SDS011;64076;51.466;7.260;2023-04-06T14:06:52;16.33;;;6.40;;
75499;SDS011;64076;51.466;7.260;2023-04-06T14:09:17;9.13;;;5.77;;
75499;SDS011;64076;51.466;7.260;2023-04-06T14:11:43;10.95;;;5.45;;
75499;SDS011;64076;51.466;7.260;2023-04-06T14:14:08;11.90;;;6.00;;
75499;SDS011;64076;51.466;7.260;2023-04-06T14:16:34;11.07;;;6.40;;
75499;SDS011;64076;51.466;7.260;2023-04-06T14:19:00;20.33;;;7.03;;
75499;SDS011;64076;51.466;7.260;2023-04-06T14:21:25;22.40;;;7.23;;
75499;SDS011;64076;51.466;7.260;2023-04-06T14:23:51;20.55;;;7.05;;
75499;SDS011;64076;51.466;7.260;2023-04-06T14:26:17;22.30;;;7.60;;
75499;SDS011;64076;51.466;7.260;2023-04-06T14:28:44;15.13;;;7.85;;
75499;SDS011;64076;51.466;7.260;2023-04-06T14:31:14;9.35;;;6.72;;
75499;SDS011;64076;51.466;7.260;2023-04-06T14:33:40;10.63;;;7.20;;
75499;SDS011;64076;51.466;7.260;2023-04-06T14:36:07;22.67;;;9.85;;
75499;SDS011;64076;51.466;7.260;2023-04-06T14:38:33;12.60;;;6.70;;
75499;SDS011;64076;51.466;7.260;2023-04-06T14:40:59;21.40;;;7.90;;
75499;SDS011;64076;51.466;7.260;2023-04-06T14:43:25;20.00;;;7.75;;
75499;SDS011;64076;51.466;7.260;2023-04-06T14:45:51;26.25;;;7.90;;